Portada
METAR-TAF:

METAR-TAF

Aeroports :

Sevilla, Espanya

latitud: 37-25N, longitud: 005-54W, altitud: 34 m

Observació

L'informe es va fer fa 6 hores i 39 minuts, a les 05:00 UTC
Vent 5 kt del Nord-Est, variant entre Nord i Est/Nord-Est
Temperatura 23°C
Humitat 57%
Pressió 1014 hPa
Visibilitat 10 km o més
sense núvols per sota de 1500 mi sense presència de cumulonimbus.

METAR: LEZL 210500Z 04005KT 360V070 CAVOK 23/14 Q1014 NOSIG

Hora: 13:39 (11:39 UTC)

Pronòstic

L'informe es va fer fa 9 hores i 39 minuts, a les 02:00 UTC
Pronòstic vàlid del 21 a les 03 UTC al 22 a les 03 UTC
Vent 7 kt del Est/Nord-Est
Visibilitat 10 km o més
Escasses núvols a una alçada de 4500 ft
Probabilitat 40% :
Temporalment
l' 21 a les 20 UTC al 21 a les 24 UTC
Vent 10 kt del Oest/Sud-Oest

TAF: LEZL 210200Z 2103/2203 06007KT 9999 FEW045 TX37/2115Z TN23/2106Z PROB40 TEMPO 2120/2124 24010KT

Observacions i pronòstics meteorològics de més de 4000 aeroports (METAR i TAF).

Les estacions disponibles són els punts grocs i vermells al mapa.

Posi el ratolí al punt desitjat per veure el nom de l'estació.

Feu clic per veure les observacions i els pronòstics meteorològics.

Per canviar el mapa: feu clic els botons verds amb una creu de color negre per apropar; al botó verd amb un guió per allunyar la imatge; o en les fletxes verdes per a mapes adjacents.


METAR-TAF: